Terminal Aerodrome Forecast
Issued by NWS Sterling, VA

Current Version | Previous Version | Text Only | Print | Product List | Glossary On
Versions: 1 2 3 4 5 6 7 8 9 10 11 12 13 14 15 16 17 18 19 20 21 22
308
FTUS41 KLWX 201124
TAFBWI
TAF
KBWI 201124Z 2012/2118 34004KT P6SM FEW200
     FM201500 36008KT P6SM SCT200
     FM210500 07004KT P6SM SCT200
     FM211400 13005KT P6SM BKN200=

USA.gov is the U.S. government's official web portal to all federal, state and local government web resources and services.